Everyone Runs
Running in TucsonRace ResultsCalendarPhotosCharitiesRace Director Services

Back to All Results    

Sunday, October 9, 2005
RACE RESULTS for The Everyone Runs New Balance Tucson 10k and 2k at Old Tucson, brought to you by Affordable Laser Hair Removal

Everyone Runs 10k
Sunday October 9th 2005
OVERALL RESULTS
PLACE TIME NAME  CITY DIVISION DivPL AGE PACE
1 31:24:00 Phillip Samoei Tucson M25-29 1 M29 05:03.2
2 32:42:00 Fidele Baregensabe Tucson M25-29 2 M27 05:15.8
3 35:25:00 Robert Seaman Tucson M25-29 3 M26 05:42.0
4 37:13:00 Sean Harte Tucson M15-19 1 M17 05:59.4
5 37:41:00 Bill Cuculic Tucson M45-49 1 M45 06:03.9
6 38:47:00 Darrell Maxey Tucson M35-39 1 M39 06:14.5
7 41:32:00 Declan Kenna Tucson M35-39 2 M36 06:41.0
8 41:45:00 Logan Dick Tucson M20-24 1 M22 06:43.1
9 42:03:00 Shawn Jackson Tucson M30-34 1 M34 06:46.0
10 42:05:00 Emilio Avila Tucson M15-19 2 M15 06:46.4
11 42:06:00 Nicholas Salazar Tucson M20-24 2 M21 06:46.5
12 42:10:00 John Norris Tucson M55-59 1 M55 06:47.2
13 42:13:00 Buck Lentzer Tucson M50-54 1 M54 06:47.6
14 42:32:00 Julius Martinez Tucson M35-39 3 M39 06:50.7
15 43:39:00 Greg Felton Tucson M25-29 4 M26 07:01.5
16 43:50:00 Tara Erdmann Tucson F15-19 1 F16 07:03.3
17 43:53:00 Blake Perrin Tucson M15-19 3 M15 07:03.7
18 44:06:00 Kenneth Johns Tucson M45-49 2 M48 07:05.8
19 44:35:00 Kevin Nissen Tucson M45-49 3 M48 07:10.5
20 44:52:00 Daren Sandbank OroValley M45-49 4 M46 07:13.2
21 45:36:00 Ben Martinez Tucson M25-29 5 M29 07:20.3
22 45:44:00 Allen Bauer Tucson M45-49 5 M49 07:21.6
23 46:16:00 Steven Wautlet Tucson M40-44 1 M44 07:26.8
24 46:21:00 Ricardo Chapetti Tucson M40-44 2 M42 07:27.6
25 46:24:00 Cotah Rose Tucson F45-49 1 F49 07:28.0
26 46:39:00 Rachel Martinez Tucson F25-29 1 F25 07:30.5
27 46:44:00 Alicia Hauweghen SanManuel F20-24 1 F20 07:31.3
28 46:56:00 Mike Sarabia Tucson M40-44 3 M40 07:33.2
29 47:06:00 Geoff Lampard Tucson M40-44 4 M44 07:34.8
30 47:49:00 Luis Figueroa Tucson M50-54 2 M51 07:41.7
31 48:04:00 David Sullivan Tucson M30-34 2 M34 07:44.1
32 48:17:00 Don  Branaman Tucson M65-69 1 M67 07:46.2
33 48:24:00 Brian Stark Tucson M30-34 3 M33 07:47.4
34 48:27:00 Steve Zimmer Tucson M25-29 6 M29 07:47.8
35 49:00:00 Mandee Fish Tucson F25-29 2 F25 07:53.1
36 49:15:00 David Maynard Tucson M15-19 4 M15 07:55.6
37 49:22:00 Greg  Bauer Tucson M35-39 4 M38 07:56.7
38 49:27:00 Phil  Eggold Tucson M40-44 5 M41 07:57.5
39 50:01:00 Bonnie O'Brien GreenValley F55-59 1 F57 08:03.0
40 50:17:00 Robb Baron Tucson M55-59 2 M58 08:05.5
41 50:27:00 Alex Silva Tucson M15-19 5 M18 08:07.1
42 50:31:00 Ryan Argosino Tucson M30-34 4 M31 08:07.8
43 50:45:00 Anne Sarabia Tucson F35-39 1 F38 08:10.0
44 50:53:00 Dennis Elley Marana M60-64 1 M63 08:11.3
45 51:00:00 Betty  Thorpe Tucson F30-34 1 F30 08:12.5
46 51:03:00 Elisa Gugerty Tucson F40-44 1 F43 08:12.9
47 51:07:00 Peter  Snell Tucson M40-44 6 M44 08:13.6
48 51:14:00 Jeff Truitt Tucson M45-49 6 M48 08:14.7
49 51:24:00 Michael Conway Tucson M20-24 3 M24 08:16.3
50 51:27:00 Bob Shapiro Tucson M55-59 3 M58 08:16.8
51 51:33:00 David Kleinman Tucson M45-49 7 M45 08:17.8
52 51:39:00 Frank Moreno Tucson M30-34 5 M34 08:18.7
53 51:46:00 Elizabeth  Weintraub Tucson F45-49 2 F46 08:19.9
54 51:49:00 Glen Simon Tucson M45-49 8 M48 08:20.3
55 51:52:00 Karen Young Tucson F35-39 2 F37 08:20.8
56 51:55:00 Jill  Sinclair Tucson F35-39 3 F39 08:21.3
57 53:10:00 Carlos Rojas Tucson M25-29 7 M28 08:33.4
58 53:13:00 Jennifer Willbur Tucson F20-24 2 F23 08:33.9
59 54:04:00 Sunny Khurmi Tucson M25-29 8 M29 08:42.1
60 54:39:00 Hal Maynard Tucson M35-39 5 M39 08:47.7
61 54:45:00 Todd Baker Tucson M40-44 7 M42 08:48.7
62 54:47:00 Tammy Shinohara Tucson F40-44 2 F40 08:49.0
63 54:51:00 Joe Faulk Tucson M40-44 8 M42 08:49.6
64 55:04:00 Thomas Stadtmiller Tucson M35-39 6 M35 08:51.7
65 55:09:00 Marcella DeWeese Tucson F45-49 3 F49 08:52.5
66 55:13:00 Shannon Ebbert Tucson F35-39 4 F38 08:53.2
67 55:20:00 Franklin Roth Tucson M50-54 3 M53 08:54.3
68 55:25:00 Jami Eggold Tucson F40-44 3 F40 08:55.1
69 55:28:00 Melissa Fasulo Tucson F30-34 2 F31 08:55.6
70 55:31:00 Russell Riordon GreenValley M55-59 4 M55 08:56.1
71 55:39:00 Scott Sheftel Tucson M40-44 9 M44 08:57.4
72 55:40:00 Sandy Rosenthal Tucson M45-49 9 M49 08:57.5
73 55:42:00 Chuck Mollenhour Tucson M40-44 10 M43 08:57.8
74 56:06:00 Steve Joncas Tucson M30-34 6 M33 09:01.7
75 56:10:00 Mark Barajas Tucson M35-39 7 M36 09:02.3
76 57:26:00 John Luna Ajo M40-44 11 M41 09:14.6
77 57:30:00 Karletta Chief Tucson F25-29 3 F29 09:15.2
78 57:32:00 Mary Lasser Tucson F40-44 4 F41 09:15.5
79 57:48:00 Anna Grube Tucson F25-29 4 F28 09:18.1
80 57:55:00 Katherine Cunningham Tucson F45-49 4 F49 09:19.2
81 57:59:00 Jessica Wickizer Tucson F20-24 3 F24 09:19.9
82 58:04:00 Julio Martinez-de-Andino Vail M25-29 9 M29 09:20.7
83 58:12:00 Irene Topor Tucson F50-54 1 F53 09:22.0
84 58:15:00 Shirley Hester Tucson F60-64 1 F62 09:22.5
85 58:30:00 Laramie Karmin Tucson F35-39 5 F38 09:24.9
86 58:32:00 Chelsea Garner Vail F25-29 5 F25 09:25.2
87 58:41:00 Jessica Eichinger Tucson F25-29 6 F27 09:26.7
88 58:44:00 Ron Jones OroValley M50-54 4 M53 09:27.1
89 58:50:00 Glenn Ratta Tucson M35-39 8 M38 09:28.1
90 58:57:00 Lani Lee Surprise F15-19 2 F19 09:29.2
91 59:04:00 Jodie Hurley Tucson F25-29 7 F27 09:30.4
92 59:07:00 Jodi Azares Tucson F25-29 8 F28 09:30.8
93 59:10:00 Jeff Jones OroValley M30-34 7 M34 09:31.3
94 59:43:00 Brandon Brim Tucson M25-29 10 M27 09:36.6
95 59:45:00 Julia Broggi Tucson F20-24 4 F24 09:36.9
96 59:52:00 Megan Heald Tucson F20-24 5 F24 09:38.1
97 1:00:04 Renee Powers Tucson F25-29 9 F29 09:40.0
98 1:00:30 Terry Pile Tucson M55-59 5 M58 09:44.2
99 1:00:33 Barbara Hutchinson Tucson F55-59 2 F57 09:44.7
100 1:00:42 Joan Boldt Tucson F45-49 5 F45 09:46.1
101 1:00:46 Mackenzie Boyd Tucson F25-29 10 F25 09:46.8
102 1:00:48 Jay Bankhead Tucson M35-39 9 M36 09:47.1
103 1:00:49 Brendan Dougherty Tucson M25-29 11 M27 09:47.2
104 1:00:53 Julia Kim Tucson F20-24 6 F23 09:47.9
105 1:01:09 Derrick Sinclair Tucson M40-44 12 M40 09:50.5
106 1:01:22 Michelle  Begay Tucson F35-39 6 F36 09:52.6
107 1:01:25 Shannon Jameson Tucson F20-24 7 F24 09:53.0
108 1:01:28 Mike Jameson Tucson M50-54 5 M50 09:53.5
109 1:01:52 Cindy Hurley Tucson F55-59 3 F57 09:57.4
110 1:02:00 Brian Blair Tucson M30-34 8 M33 09:58.7
111 1:02:08 Ken  Fey Tucson M35-39 10 M35 10:00.0
112 1:02:17 Chris  Krenke Tucson M25-29 12 M25 10:01.4
113 1:02:57 Doug Holt Tucson M55-59 6 M58 10:07.8
114 1:03:06 Sarah Moore Tucson F45-49 6 F49 10:09.3
115 1:03:22 Rob  Bovill Tucson M25-29 13 M26 10:11.9
116 1:03:26 Jodi Kendall OroValley F25-29 11 F25 10:12.5
117 1:03:28 Amy Stephens Tucson F35-39 7 F37 10:12.8
118 1:04:00 Ubaldo Nieves Tucson M30-34 9 M30 10:18.0
119 1:04:06 Rebecca Gallup Tucson F25-29 12 F26 10:19.0
120 1:04:14 Terri Ettner Tucson F40-44 5 F42 10:20.2
121 1:04:17 Ann  Vendta Tucson F40-44 6 F42 10:20.7
122 1:04:21 David Scillufo Tucson M35-39 11 M36 10:21.4
123 1:04:34 Kathryn Charles Tucson F30-34 3 F32 10:23.5
124 1:04:37 Ann Fuhrman Tucson F45-49 7 F48 10:23.9
125 1:04:50 Barbora Dvorakova Tucson F20-24 8 F20 10:26.0
126 1:04:53 Katerina Dvorak Tucson F40-44 7 F43 10:26.5
127 1:05:01 Peggy  Olson Tempe F45-49 8 F46 10:27.8
128 1:05:11 Jayne Southworth Tucson F45-49 9 F46 10:29.4
129 1:05:34 Lee Olitzky Tucson M55-59 7 M56 10:33.1
130 1:05:56 Elizabeth Ramirez Tucson F30-34 4 F30 10:36.7
131 1:06:05 Cindy Baron Tucson F45-49 10 F49 10:38.1
132 1:06:12 Kelly Sweeney Phoenix F40-44 8 F41 10:39.2
133 1:06:15 April Fenton Tucson F40-44 9 F40 10:39.7
134 1:06:18 Autumn Hafenfeld OroValley F30-34 5 F34 10:40.2
135 1:06:57 Gilda Santana Tucson F40-44 10 F44 10:46.5
136 1:07:07 Sheila Norris Tucson F50-54 2 F50 10:48.1
137 1:08:42 Connie Lopez Tucson F55-59 4 F55 11:03.4
138 1:09:17 Julie Carroll Tucson F30-34 6 F30 11:09.0
139 1:09:23 Ty Olden Sahuarita M25-29 14 M29 11:10.0
140 1:09:42 Sally Watts Tucson F60-64 2 F63 11:13.0
141 1:10:29 Pam LeClair GreenValley F55-59 5 F55 11:20.6
142 1:11:03 Madelyn Vogelsberg Tucson F20-24 9 F23 11:26.1
143 1:11:18 Jaime Gray Tucson F25-29 13 F29 11:28.5
144 1:11:42 Katherine Wong GreenValley F70-99 1 F71 11:32.3
145 1:11:59 Ashley Dorssom Tucson F20-24 10 F23 11:35.1
146 1:12:09 Paulette Herder Tucson F35-39 8 F37 11:36.7
147 1:12:33 Jeanne Pfander Tucson F45-49 11 F49 11:40.5
148 1:12:37 Barbara Madigan Tucson F45-49 12 F45 11:41.2
149 1:12:41 Rebecca Brin Tucson F25-29 14 F27 11:41.8
150 1:12:46 David Watson Tucson M55-59 8 M59 11:42.6
151 1:13:05 Eric  Krutzsch Tucson M50-54 6 M53 11:45.7
152 1:13:46 Ruth Martin Tucson F45-49 13 F45 11:52.3
153 1:13:48 Brande Kitzberger Tucson F25-29 15 F29 11:52.6
154 1:14:02 Marsha Keller Tucson F45-49 14 F45 11:54.9
155 1:14:06 Della Watson Tucson F40-44 11 F44 11:55.5
156 1:14:33 Sue Smith Tucson F65-69 1 F65 11:59.9
157 1:15:03 Tia Tsosie-Begay Tucson F25-29 16 F25 12:04.7
158 1:15:12 Myrna Azares Tucson F35-39 9 F38 12:06.1
159 1:15:35 Katerina Munzar Tucson F30-34 7 F31 12:09.8
160 1:15:40 Patricia Wiercinski Tucson F40-44 12 F41 12:10.6
161 1:15:58 Jim Gugerty Tucson M40-44 13 M44 12:13.5
162 1:16:15 Melissa See Tucson F30-34 8 F33 12:16.3
163 1:16:40 Michael Rowe Tucson M60-64 2 M62 12:20.3
164 1:18:14 Nancy Ellis Tucson F40-44 13 F40 12:35.4
165 1:18:32 William Swafford Tucson M50-54 7 M53 12:38.3
166 1:18:41 Dawn  Millos Tucson F20-24 11 F23 12:39.8
167 1:19:08 John  Olson Tempe M45-49 10 M49 12:44.1
168 1:20:31 Sandy Alter Tucson F40-44 14 F40 12:57.5
169 1:20:34 Fanlyn Buxner Tucson F25-29 17 F27 12:58.0
170 1:23:07 Pat Jones OroValley F50-54 3 F53 13:22.6
171 1:24:43 Annemarie Medina Tucson F45-49 15 F47 13:38.0
172 1:25:51 Diane Graham Tucson F50-54 4 F51 13:49.0
173 1:28:24 Avelena Luna Ajo F30-34 9 F34 14:13.6
174 1:29:13 Janet Rowe Tucson F60-64 3 F60 14:21.5
175 1:37:28 Katie Giroux Tucson F20-24 12 F21 15:41.1
176 1:37:29 Christy Giroux Tucson F45-49 16 F49 15:41.3
177 1:38:32 Dan Thatcher Tucson M50-54 8 M54 15:51.4
178 1:41:20 Curtis Bray Phoenix M30-34 10 M34 16:18.5
179 1:44:03 Karen Gallagher Tucson F55-59 6 F55 16:44.7
180 1:44:05 Janne Irvine Tucson F55-59 7 F57 16:45.0
181 1:51:39 Nancy Finateri Tucson F65-69 2 F65 17:58.1